Time;durP1;ratioP1;P1;durP2;ratioP2;P2;SDS_P1;SDS_P2;PMS_P1;PMS_P2;Temp;Humidity;BMP_temperature;BMP_pressure;BME280_temperature;BME280_humidity;BME280_pressure;Samples;Min_cycle;Max_cycle;Signal;HPM_P1;HPM_P2
2021/12/16 00:07:46;;;;;;;13.70;11.33;;;;;;;5.38;94.14;96970.50;4391126;32;20255;-59
2021/12/16 00:29:42;;;;;;;13.90;12.40;;;;;;;5.81;90.80;96951.97;4377647;32;20428;-60
2021/12/16 00:34:52;;;;;;;12.67;11.20;;;;;;;5.86;90.70;96945.00;4377969;32;20295;-60
2021/12/16 00:37:18;;;;;;;14.23;12.07;;;;;;;5.94;90.23;96943.94;4387277;32;20311;-61
2021/12/16 00:39:45;;;;;;;13.97;12.43;;;;;;;5.90;90.40;96944.59;4400371;32;20188;-60
2021/12/16 00:42:31;;;;;;;13.00;11.63;;;;;;;5.84;90.06;96946.25;4406175;32;20279;-60
2021/12/16 00:47:35;;;;;;;14.07;12.37;;;;;;;5.52;90.60;96950.91;4405571;32;20294;-60
2021/12/16 00:54:09;;;;;;;11.97;10.77;;;;;;;5.65;90.75;96949.94;4392613;32;20188;-60
2021/12/16 00:55:55;;;;;;;13.27;11.73;;;;;;;5.60;90.57;96960.34;4406178;32;20323;-60
2021/12/16 00:58:30;;;;;;;12.37;11.10;;;;;;;5.68;90.97;96952.13;4391313;32;20339;-60
2021/12/16 01:01:07;;;;;;;15.67;12.43;;;;;;;5.75;90.57;96955.50;4392300;32;20291;-60
2021/12/16 01:03:55;;;;;;;13.53;12.13;;;;;;;5.73;91.05;96957.53;4391011;32;20267;-59
2021/12/16 01:36:49;;;;;;;14.30;12.63;;;;;;;5.66;91.89;96967.34;4403165;32;20307;-60
2021/12/16 01:40:23;;;;;;;13.83;12.43;;;;;;;5.81;91.17;96965.16;4388191;32;20324;-60
2021/12/16 01:50:20;;;;;;;15.23;12.50;;;;;;;5.16;93.86;96983.28;4389655;32;20272;-60
2021/12/16 01:55:27;;;;;;;13.50;11.87;;;;;;;5.45;93.19;96982.56;4391183;32;20289;-60
2021/12/16 01:57:57;;;;;;;13.13;11.73;;;;;;;5.33;92.59;96983.50;4389205;32;20296;-60
2021/12/16 02:00:43;;;;;;;14.80;12.07;;;;;;;5.30;92.85;96968.97;4390637;32;20290;-60
2021/12/16 02:03:08;;;;;;;13.80;11.97;;;;;;;5.04;94.29;96971.84;4387681;32;20300;-60
2021/12/16 02:10:41;;;;;;;13.03;11.63;;;;;;;5.28;94.12;96939.44;4391781;32;20281;-60
2021/12/16 02:32:48;;;;;;;12.47;11.10;;;;;;;5.37;93.45;96961.81;4392167;32;20312;-61
2021/12/16 02:35:33;;;;;;;12.73;10.83;;;;;;;5.65;92.68;96965.72;4393619;32;20299;-60
2021/12/16 02:38:02;;;;;;;12.27;11.03;;;;;;;5.66;92.33;96962.88;4391142;32;20325;-60
2021/12/16 02:40:28;;;;;;;12.67;11.37;;;;;;;5.75;91.82;96966.03;4391396;32;20281;-60
2021/12/16 02:50:50;;;;;;;14.40;11.73;;;;;;;5.43;92.28;96955.66;4386629;32;20330;-60
2021/12/16 02:53:15;;;;;;;13.70;12.30;;;;;;;5.56;92.40;96956.53;4389529;32;20280;-60
2021/12/16 02:55:41;;;;;;;12.77;11.37;;;;;;;5.67;92.02;96955.78;4391648;32;20229;-60
2021/12/16 02:58:06;;;;;;;13.33;11.93;;;;;;;5.79;91.35;96946.13;4392651;32;20212;-60
2021/12/16 03:00:37;;;;;;;14.40;12.20;;;;;;;5.84;91.06;96947.06;4392208;32;20235;-60
2021/12/16 03:03:02;;;;;;;15.73;12.80;;;;;;;5.79;91.67;96957.47;4391191;32;20196;-59
2021/12/16 03:05:28;;;;;;;14.20;11.97;;;;;;;5.87;91.16;96949.25;4392781;32;20322;-60
2021/12/16 03:07:54;;;;;;;14.60;13.10;;;;;;;5.70;91.56;96950.88;4389689;32;20204;-60
2021/12/16 03:12:57;;;;;;;13.50;12.10;;;;;;;5.78;91.62;96962.94;4394069;32;20192;-60
2021/12/16 03:16:08;;;;;;;15.50;12.23;;;;;;;5.85;90.94;96966.28;4390397;32;20283;-60
2021/12/16 03:21:00;;;;;;;15.33;12.60;;;;;;;5.55;92.48;96976.00;4392662;32;20289;-60
2021/12/16 03:33:44;;;;;;;9.10;8.13;;;;;;;5.68;90.84;96975.81;4391163;32;20371;-60
2021/12/16 03:36:27;;;;;;;10.20;9.20;;;;;;;5.77;89.74;96971.88;4391522;32;20228;-60
2021/12/16 03:39:01;;;;;;;12.43;9.70;;;;;;;5.72;90.16;96974.38;4387378;32;20323;-60
2021/12/16 03:41:27;;;;;;;13.07;10.30;;;;;;;5.59;90.70;96982.44;4392093;32;20276;-60
2021/12/16 03:43:55;;;;;;;12.43;10.97;;;;;;;5.35;91.85;96987.53;4388276;32;20280;-60
2021/12/16 03:46:25;;;;;;;13.17;11.57;;;;;;;5.22;92.78;96987.66;4400921;32;20356;-60
2021/12/16 03:49:17;;;;;;;13.33;10.90;;;;;;;5.15;93.17;96993.00;4391168;32;20284;-60
2021/12/16 03:52:06;;;;;;;14.43;12.87;;;;;;;5.24;93.19;96997.97;4389104;32;20350;-60
2021/12/16 03:54:40;;;;;;;14.83;12.60;;;;;;;5.40;92.86;96992.16;4388764;32;20288;-60
2021/12/16 03:57:09;;;;;;;15.27;13.40;;;;;;;5.31;92.95;96986.38;4390422;32;20272;-60
2021/12/16 03:59:37;;;;;;;17.60;13.53;;;;;;;5.52;92.59;96993.81;4388572;32;20298;-60
2021/12/16 04:02:09;;;;;;;16.90;13.83;;;;;;;5.43;92.46;97000.38;4392840;32;20283;-60
2021/12/16 04:04:35;;;;;;;17.20;13.93;;;;;;;5.03;93.16;97004.44;4406459;32;20287;-60
2021/12/16 04:07:00;;;;;;;16.20;12.57;;;;;;;5.11;94.36;97004.16;4392817;32;20279;-60
2021/12/16 04:09:26;;;;;;;17.57;14.40;;;;;;;5.18;93.77;97008.34;4393006;32;20323;-60
2021/12/16 04:12:03;;;;;;;19.97;14.93;;;;;;;5.37;92.94;97014.44;4406672;32;20185;-60
2021/12/16 04:14:28;;;;;;;16.33;14.00;;;;;;;5.07;94.31;97013.50;4391184;32;20263;-60
2021/12/16 04:16:56;;;;;;;18.53;14.30;;;;;;;5.14;94.12;97019.53;4407024;32;20340;-60
2021/12/16 04:19:26;;;;;;;19.90;15.83;;;;;;;5.12;94.10;97019.72;4392507;32;20169;-60
2021/12/16 04:22:03;;;;;;;19.97;15.87;;;;;;;5.03;94.10;97025.47;4392600;32;20344;-60
2021/12/16 04:24:28;;;;;;;17.43;14.67;;;;;;;5.01;94.54;97017.78;4406334;32;20271;-60
2021/12/16 04:26:56;;;;;;;15.83;14.10;;;;;;;4.96;94.42;97024.75;4405987;32;20288;-60
2021/12/16 04:29:23;;;;;;;15.30;13.03;;;;;;;4.94;94.45;97027.59;4392106;32;20321;-60
2021/12/16 04:31:50;;;;;;;15.77;13.47;;;;;;;4.90;95.06;97026.41;4382688;32;20290;-61
2021/12/16 04:34:16;;;;;;;16.07;13.67;;;;;;;4.97;94.60;97027.16;4391682;32;20302;-60
2021/12/16 04:36:42;;;;;;;14.43;12.47;;;;;;;5.07;94.04;97029.28;4406532;32;20292;-60
2021/12/16 04:39:13;;;;;;;14.63;13.07;;;;;;;4.89;94.06;97029.25;4405897;32;20325;-60
2021/12/16 04:41:40;;;;;;;15.63;13.07;;;;;;;4.84;94.43;97035.94;4406500;32;20199;-60
2021/12/16 04:44:09;;;;;;;16.63;13.53;;;;;;;5.16;93.84;97028.00;4392119;32;20283;-60
2021/12/16 04:46:34;;;;;;;15.67;13.47;;;;;;;4.96;93.94;97033.44;4406103;32;20354;-60
2021/12/16 04:49:01;;;;;;;16.67;14.97;;;;;;;4.97;94.49;97036.87;4406078;32;20322;-60
2021/12/16 04:51:29;;;;;;;15.00;12.20;;;;;;;4.96;94.52;97040.53;4404447;32;20221;-60
2021/12/16 04:53:54;;;;;;;16.37;14.07;;;;;;;4.94;94.27;97038.09;4399868;32;20346;-60
2021/12/16 04:56:20;;;;;;;14.43;12.43;;;;;;;4.75;94.58;97044.31;4405759;32;20283;-60
2021/12/16 04:58:49;;;;;;;15.10;12.77;;;;;;;4.76;94.31;97046.75;4407917;32;20192;-60
2021/12/16 05:01:15;;;;;;;14.40;12.90;;;;;;;4.90;94.64;97046.63;4392370;32;20302;-60
2021/12/16 05:03:41;;;;;;;14.20;12.17;;;;;;;4.92;94.96;97045.41;4391629;32;20397;-60
2021/12/16 05:06:07;;;;;;;13.67;11.57;;;;;;;5.04;94.32;97056.00;4392318;32;20272;-60
2021/12/16 05:08:33;;;;;;;13.73;11.87;;;;;;;4.96;94.12;97056.28;4392392;32;20288;-60
2021/12/16 05:11:01;;;;;;;13.70;11.80;;;;;;;4.88;94.86;97060.00;4391103;32;20280;-60
2021/12/16 05:13:31;;;;;;;11.13;9.73;;;;;;;5.10;93.82;97055.97;4404702;32;20188;-60
2021/12/16 05:16:06;;;;;;;12.20;10.70;;;;;;;4.97;93.18;97063.16;4390063;32;20279;-60
2021/12/16 05:18:34;;;;;;;9.90;8.57;;;;;;;4.76;93.92;97067.78;4391720;32;20275;-60
2021/12/16 05:21:47;;;;;;;9.73;8.03;;;;;;;4.73;94.74;97072.66;4405502;32;20311;-60
2021/12/16 05:26:41;;;;;;;8.10;7.30;;;;;;;4.62;94.55;97076.75;4405616;32;20328;-60
2021/12/16 05:29:06;;;;;;;8.73;7.93;;;;;;;4.61;94.09;97069.06;4405482;32;20283;-60
2021/12/16 05:31:31;;;;;;;9.50;8.50;;;;;;;4.56;94.65;97074.97;4405925;32;20234;-60
2021/12/16 05:33:59;;;;;;;7.87;7.17;;;;;;;4.75;94.72;97066.16;4388593;32;20297;-58
2021/12/16 05:36:24;;;;;;;7.67;6.90;;;;;;;4.87;94.12;97079.41;4405715;32;20180;-58
2021/12/16 05:38:50;;;;;;;7.40;6.70;;;;;;;4.76;93.60;97075.66;4391589;32;20362;-59
2021/12/16 05:41:19;;;;;;;7.90;7.03;;;;;;;4.66;93.91;97085.81;4390908;32;20180;-58
2021/12/16 05:43:46;;;;;;;8.60;7.13;;;;;;;4.64;93.69;97085.22;4405867;32;20188;-58
2021/12/16 05:46:13;;;;;;;7.60;6.83;;;;;;;4.93;93.45;97081.19;4391926;32;20291;-58
2021/12/16 05:48:41;;;;;;;6.73;6.13;;;;;;;4.67;93.74;97090.06;4391319;32;20283;-58
2021/12/16 05:51:14;;;;;;;7.10;6.40;;;;;;;4.74;93.41;97090.84;4390678;32;20276;-58
2021/12/16 05:53:41;;;;;;;6.70;6.10;;;;;;;4.89;92.86;97092.34;4405000;32;20283;-58
2021/12/16 05:56:07;;;;;;;6.57;5.97;;;;;;;4.76;93.25;97094.06;4389452;32;20280;-58
2021/12/16 05:58:34;;;;;;;7.37;6.67;;;;;;;4.83;93.52;97105.31;4383377;32;20279;-58
2021/12/16 06:01:05;;;;;;;7.63;6.93;;;;;;;5.02;93.12;97113.28;4388544;32;20180;-58
2021/12/16 06:03:31;;;;;;;7.77;6.67;;;;;;;5.10;92.13;97110.41;4386746;32;20318;-59
2021/12/16 06:05:57;;;;;;;7.37;6.17;;;;;;;4.99;92.41;97111.09;4402565;32;20282;-59
2021/12/16 06:08:23;;;;;;;7.00;6.33;;;;;;;5.05;92.24;97113.66;4376065;32;20362;-58
2021/12/16 06:13:24;;;;;;;7.30;6.67;;;;;;;4.83;91.94;97112.41;4393993;32;20283;-59
2021/12/16 06:27:01;;;;;;;7.73;6.93;;;;;;;4.94;91.17;97117.00;4390556;32;20330;-59
2021/12/16 06:29:27;;;;;;;7.80;7.03;;;;;;;4.79;91.80;97119.91;4379689;32;20355;-59
2021/12/16 06:31:54;;;;;;;9.07;7.47;;;;;;;4.88;91.46;97135.44;4395769;32;20280;-59
2021/12/16 06:34:20;;;;;;;8.27;7.37;;;;;;;4.71;91.88;97130.69;4395496;32;20248;-59
2021/12/16 06:36:46;;;;;;;8.07;7.27;;;;;;;4.63;91.83;97136.16;4389044;32;20287;-58
2021/12/16 06:39:11;;;;;;;9.57;8.40;;;;;;;4.52;92.72;97134.22;4391688;32;20288;-58
2021/12/16 06:41:38;;;;;;;8.13;7.27;;;;;;;4.49;93.53;97132.81;4405430;32;20180;-58
2021/12/16 06:44:16;;;;;;;9.10;8.20;;;;;;;4.58;93.27;97138.62;4389594;32;20176;-58
2021/12/16 06:46:44;;;;;;;8.50;7.43;;;;;;;4.82;93.01;97148.41;4398303;32;20290;-59
2021/12/16 06:49:13;;;;;;;11.77;9.00;;;;;;;4.77;92.80;97132.47;4391376;32;20279;-58
2021/12/16 06:51:47;;;;;;;13.73;9.10;;;;;;;4.78;93.04;97136.69;4393892;32;20377;-58
2021/12/16 06:54:21;;;;;;;11.07;8.70;;;;;;;5.01;92.82;97135.34;4394093;32;20283;-59
2021/12/16 06:57:05;;;;;;;10.70;9.27;;;;;;;4.98;92.12;97144.47;4394704;32;20324;-59
2021/12/16 06:59:34;;;;;;;12.60;8.97;;;;;;;4.93;91.26;97141.66;4391745;32;20319;-58
2021/12/16 07:02:30;;;;;;;11.43;9.47;;;;;;;4.82;91.37;97145.75;4392403;32;20307;-58
2021/12/16 07:04:56;;;;;;;9.37;8.27;;;;;;;4.72;91.88;97153.31;4392628;32;20284;-59
2021/12/16 07:07:21;;;;;;;9.93;8.63;;;;;;;4.65;92.83;97151.72;4407684;32;20290;-59
2021/12/16 07:09:46;;;;;;;9.80;8.80;;;;;;;4.87;92.49;97146.97;4409350;32;20199;-59
2021/12/16 07:12:12;;;;;;;10.30;9.23;;;;;;;5.04;92.14;97148.06;4395241;32;20199;-59
2021/12/16 07:14:39;;;;;;;10.13;8.53;;;;;;;5.17;91.03;97156.69;4391056;32;20340;-59
2021/12/16 07:17:11;;;;;;;10.27;9.13;;;;;;;5.23;90.77;97152.38;4405864;32;20259;-59
2021/12/16 07:19:39;;;;;;;8.23;6.50;;;;;;;5.26;90.95;97157.22;4393310;32;20344;-59
2021/12/16 07:22:07;;;;;;;7.00;6.30;;;;;;;5.12;89.62;97150.44;4407590;32;20276;-59
2021/12/16 07:24:32;;;;;;;7.63;6.93;;;;;;;4.99;89.00;97145.28;4405126;32;20331;-59
2021/12/16 07:26:58;;;;;;;7.03;6.30;;;;;;;5.09;89.65;97135.87;4399232;32;20351;-58
2021/12/16 07:29:23;;;;;;;7.00;6.30;;;;;;;5.24;89.13;97143.47;4392898;32;20176;-59
2021/12/16 07:31:49;;;;;;;6.80;6.10;;;;;;;5.18;89.52;97149.59;4406715;32;20188;-60
2021/12/16 07:34:15;;;;;;;6.63;6.03;;;;;;;5.22;89.79;97161.28;4395529;32;20176;-58
2021/12/16 07:36:43;;;;;;;6.40;5.67;;;;;;;5.42;89.33;97159.31;4407409;32;20180;-59
2021/12/16 07:39:12;;;;;;;8.27;5.63;;;;;;;5.51;88.25;97163.28;4391511;32;20276;-58
2021/12/16 07:41:40;;;;;;;7.40;5.63;;;;;;;5.36;88.88;97160.19;4393040;32;20370;-59
2021/12/16 07:44:10;;;;;;;8.23;6.27;;;;;;;5.43;87.90;97165.37;4407709;32;20279;-59
2021/12/16 07:46:43;;;;;;;6.60;6.00;;;;;;;5.60;87.45;97163.03;4393268;32;20355;-59
2021/12/16 07:49:13;;;;;;;30.50;7.47;;;;;;;5.64;87.66;97167.63;4393221;32;20288;-58
2021/12/16 07:51:40;;;;;;;28.33;7.67;;;;;;;5.95;92.86;97161.50;4401561;32;20288;-58
2021/12/16 07:54:08;;;;;;;34.20;7.90;;;;;;;6.54;94.31;97158.19;4404211;32;20318;-58
2021/12/16 07:56:33;;;;;;;12.30;6.27;;;;;;;7.37;91.37;97154.81;4393464;32;20275;-58
2021/12/16 07:58:59;;;;;;;16.13;6.20;;;;;;;7.56;85.68;97158.97;4406608;32;20286;-58
2021/12/16 08:01:26;;;;;;;9.57;5.73;;;;;;;7.81;84.28;97152.66;4399156;32;20181;-58
2021/12/16 08:03:52;;;;;;;10.37;6.70;;;;;;;8.38;85.18;97158.13;4407265;32;20207;-58
2021/12/16 08:06:22;;;;;;;10.17;6.67;;;;;;;8.46;83.00;97157.78;4394197;32;20433;-58
2021/12/16 08:08:55;;;;;;;14.40;6.77;;;;;;;8.61;81.70;97163.38;4393597;32;20189;-58
2021/12/16 08:11:21;;;;;;;7.83;5.93;;;;;;;8.49;80.71;97166.06;4399807;32;20432;-58
2021/12/16 08:13:46;;;;;;;5.77;4.80;;;;;;;8.52;79.69;97178.00;4408521;32;20279;-58
2021/12/16 08:16:12;;;;;;;6.10;5.50;;;;;;;8.66;77.17;97179.34;4393039;32;20332;-58
2021/12/16 08:18:38;;;;;;;8.87;5.50;;;;;;;8.61;76.17;97182.69;4397996;32;21461;-58
2021/12/16 08:21:06;;;;;;;6.20;5.60;;;;;;;8.23;78.79;97190.31;4395838;32;20176;-58
2021/12/16 08:23:32;;;;;;;6.17;5.67;;;;;;;8.52;77.69;97192.00;4407499;32;20211;-58
2021/12/16 08:25:57;;;;;;;6.23;5.37;;;;;;;8.76;76.34;97192.75;4399701;32;20359;-58
2021/12/16 08:28:28;;;;;;;5.80;5.20;;;;;;;8.71;76.71;97190.03;4395943;32;20239;-58
2021/12/16 08:30:53;;;;;;;4.40;4.10;;;;;;;8.90;76.28;97194.13;4367262;32;20206;-58
2021/12/16 08:33:23;;;;;;;5.53;5.03;;;;;;;8.90;75.35;97198.59;4370615;32;20291;-58
2021/12/16 08:35:51;;;;;;;7.70;5.77;;;;;;;8.79;75.73;97191.50;4398641;32;20176;-58
2021/12/16 08:38:22;;;;;;;4.87;4.57;;;;;;;8.88;75.72;97198.03;4393294;32;20291;-59
2021/12/16 08:40:51;;;;;;;4.90;4.60;;;;;;;7.84;75.33;97197.13;4406625;32;20360;-59
2021/12/16 08:43:18;;;;;;;5.33;4.83;;;;;;;7.67;76.75;97190.91;4392498;32;20276;-59
2021/12/16 08:45:45;;;;;;;5.57;5.07;;;;;;;7.43;77.48;97196.16;4403935;32;20295;-60
2021/12/16 08:48:11;;;;;;;5.87;5.47;;;;;;;7.28;78.59;97203.66;4401588;32;20310;-60
2021/12/16 08:50:41;;;;;;;6.23;4.83;;;;;;;7.24;79.18;97202.53;4392127;32;20290;-61
2021/12/16 08:53:09;;;;;;;5.53;5.03;;;;;;;7.12;80.09;97204.31;4393379;32;20317;-60
2021/12/16 08:55:38;;;;;;;5.17;4.77;;;;;;;6.81;79.87;97214.06;4390185;32;20340;-59
2021/12/16 08:58:05;;;;;;;5.90;5.47;;;;;;;6.57;81.69;97212.31;4389933;32;20288;-59
2021/12/16 09:00:35;;;;;;;6.13;5.47;;;;;;;6.51;82.42;97218.47;4399370;32;20351;-59
2021/12/16 09:03:00;;;;;;;5.73;5.33;;;;;;;6.52;83.05;97210.34;4381861;32;20306;-60
2021/12/16 09:05:28;;;;;;;7.40;6.70;;;;;;;6.58;83.07;97218.41;4404735;32;20279;-60
2021/12/16 09:07:54;;;;;;;7.03;6.23;;;;;;;6.44;83.43;97212.47;4389562;32;20188;-60
2021/12/16 09:10:25;;;;;;;6.10;5.50;;;;;;;6.46;82.88;97216.47;4398570;32;20355;-59
2021/12/16 09:13:03;;;;;;;5.87;5.33;;;;;;;6.47;83.29;97217.28;4391956;32;20275;-59
2021/12/16 09:15:35;;;;;;;5.13;4.73;;;;;;;6.65;83.80;97214.62;4392318;32;20295;-61
2021/12/16 09:18:02;;;;;;;5.53;5.03;;;;;;;6.64;83.59;97228.88;4392789;32;20313;-60
2021/12/16 09:20:29;;;;;;;5.53;5.13;;;;;;;6.76;83.49;97229.75;4385549;32;20286;-63
2021/12/16 09:22:55;;;;;;;5.50;5.10;;;;;;;7.01;82.26;97227.00;4380226;32;20295;-59
2021/12/16 09:25:20;;;;;;;5.37;4.97;;;;;;;6.92;82.03;97228.31;4408924;32;20318;-62
2021/12/16 09:27:46;;;;;;;4.53;4.13;;;;;;;6.79;82.32;97225.84;4408846;32;20291;-60
2021/12/16 09:30:16;;;;;;;4.47;4.17;;;;;;;6.99;81.40;97233.53;4397294;32;20191;-59
2021/12/16 09:32:42;;;;;;;4.70;4.40;;;;;;;6.69;82.30;97236.91;4392338;32;20203;-59
2021/12/16 09:35:10;;;;;;;4.43;4.13;;;;;;;6.64;82.31;97242.06;4392433;32;20276;-58
2021/12/16 09:37:36;;;;;;;4.60;4.27;;;;;;;6.94;81.38;97238.66;4407347;32;20310;-60
2021/12/16 09:40:06;;;;;;;9.30;4.50;;;;;;;7.13;80.69;97246.31;4390663;32;20294;-60
2021/12/16 09:42:31;;;;;;;5.80;5.30;;;;;;;7.03;81.06;97239.97;4379499;32;20285;-60
2021/12/16 09:44:57;;;;;;;5.60;5.00;;;;;;;6.84;82.69;97253.19;4401156;32;20298;-58
2021/12/16 09:47:23;;;;;;;4.83;4.43;;;;;;;6.75;82.64;97246.59;4387216;32;20260;-60
2021/12/16 09:49:49;;;;;;;4.83;4.47;;;;;;;6.66;82.71;97242.63;4404769;32;20180;-60
2021/12/16 09:52:15;;;;;;;4.40;4.00;;;;;;;6.50;83.20;97243.22;4390913;32;20289;-59
2021/12/16 09:54:43;;;;;;;4.63;4.33;;;;;;;6.47;84.24;97235.75;4391110;32;20272;-58
2021/12/16 09:57:08;;;;;;;4.40;4.10;;;;;;;6.50;84.25;97237.94;4404126;32;20218;-59
2021/12/16 09:59:35;;;;;;;4.27;3.97;;;;;;;6.29;84.79;97233.91;4404199;32;20418;-57
2021/12/16 10:02:07;;;;;;;4.80;4.40;;;;;;;6.35;85.34;97246.22;4383960;32;20172;-59
2021/12/16 10:04:34;;;;;;;3.83;3.63;;;;;;;6.78;83.54;97240.88;4404831;32;20295;-59
2021/12/16 10:07:04;;;;;;;4.27;3.97;;;;;;;6.93;82.34;97239.69;4391193;32;20271;-57
2021/12/16 10:09:30;;;;;;;3.70;3.40;;;;;;;6.85;82.24;97238.16;4388528;32;20284;-60
2021/12/16 10:11:58;;;;;;;3.73;3.53;;;;;;;6.67;81.71;97246.88;4388410;32;20307;-57
2021/12/16 10:19:41;;;;;;;3.80;3.50;;;;;;;6.81;81.81;97244.91;4403255;32;20338;-59
2021/12/16 10:22:25;;;;;;;3.97;3.67;;;;;;;6.76;81.91;97245.56;4390850;32;20275;-59
2021/12/16 10:24:54;;;;;;;3.93;3.63;;;;;;;6.78;82.29;97229.53;4396084;32;20215;-59
2021/12/16 10:27:23;;;;;;;4.20;3.80;;;;;;;6.92;81.50;97230.16;4403893;32;20276;-59
2021/12/16 10:30:02;;;;;;;6.80;2.80;;;;;;;6.90;81.74;97228.53;4388743;32;20288;-53
2021/12/16 10:32:39;;;;;;;3.03;2.50;;;;;;;8.34;91.83;97220.44;4390600;32;20279;-52
2021/12/16 10:35:17;;;;;;;5.33;2.47;;;;;;;11.69;82.67;97213.88;4398198;32;20297;-52
2021/12/16 10:37:53;;;;;;;4.07;3.47;;;;;;;13.56;70.79;97202.56;4391366;32;20236;-48
2021/12/16 10:40:29;;;;;;;4.50;3.30;;;;;;;14.58;60.88;97207.81;4393858;32;20214;-52
2021/12/16 10:42:57;;;;;;;3.17;2.53;;;;;;;15.42;57.47;97202.34;4392155;32;20192;-49
2021/12/16 10:45:34;;;;;;;2.80;2.60;;;;;;;16.10;54.27;97198.91;4392000;32;20188;-54
2021/12/16 10:48:13;;;;;;;3.37;3.07;;;;;;;16.54;52.07;97198.75;4378912;32;20250;-57
2021/12/16 10:51:09;;;;;;;3.03;2.83;;;;;;;15.91;48.50;97204.19;4390866;32;20196;-58
2021/12/16 10:53:56;;;;;;;3.20;3.00;;;;;;;13.51;52.67;97205.22;4381562;32;20184;-60
2021/12/16 10:56:35;;;;;;;3.47;3.20;;;;;;;12.04;58.10;97201.97;4403057;32;20227;-62
2021/12/16 10:59:07;;;;;;;3.67;3.37;;;;;;;10.68;62.82;97203.00;4393503;32;20236;-58
2021/12/16 11:01:41;;;;;;;3.33;3.13;;;;;;;9.23;68.55;97200.53;4385899;32;20184;-58
2021/12/16 11:04:26;;;;;;;3.47;3.27;;;;;;;8.63;71.32;97200.16;4406418;32;20195;-58
2021/12/16 11:06:53;;;;;;;3.07;2.87;;;;;;;8.48;72.44;97201.47;4394717;32;20260;-57
2021/12/16 11:09:24;;;;;;;3.37;3.17;;;;;;;8.51;72.38;97205.50;4382219;32;20260;-59
2021/12/16 11:12:17;;;;;;;3.23;2.93;;;;;;;8.56;72.59;97200.28;4400546;32;20188;-57
2021/12/16 11:14:47;;;;;;;3.63;3.37;;;;;;;8.16;73.82;97205.50;4406299;32;20192;-57
2021/12/16 11:17:15;;;;;;;3.07;2.87;;;;;;;8.10;74.20;97201.94;4393540;32;20195;-58
2021/12/16 11:19:43;;;;;;;3.53;3.30;;;;;;;7.96;74.71;97189.19;4393765;32;20303;-57
2021/12/16 11:22:10;;;;;;;3.20;3.00;;;;;;;7.93;74.73;97195.72;4393872;32;20283;-59
2021/12/16 11:24:36;;;;;;;3.57;2.97;;;;;;;7.89;74.96;97189.31;4401154;32;20310;-58
2021/12/16 11:27:22;;;;;;;3.53;3.33;;;;;;;7.47;76.65;97191.22;4407536;32;20272;-58
2021/12/16 11:29:47;;;;;;;3.50;2.60;;;;;;;7.57;75.90;97197.53;4397824;32;20228;-58
2021/12/16 11:32:42;;;;;;;3.07;2.87;;;;;;;7.43;75.95;97182.94;4386759;32;20277;-58
2021/12/16 11:35:28;;;;;;;2.90;2.70;;;;;;;7.44;75.84;97192.47;4390561;32;20176;-58
2021/12/16 11:37:55;;;;;;;4.20;3.90;;;;;;;7.37;76.10;97191.75;4392203;32;20312;-58
2021/12/16 11:40:21;;;;;;;4.20;3.90;;;;;;;7.38;77.04;97195.22;4410714;32;20327;-58
2021/12/16 11:43:05;;;;;;;3.70;3.40;;;;;;;7.38;77.81;97197.84;4405767;32;20330;-58
2021/12/16 11:45:36;;;;;;;4.40;4.00;;;;;;;7.31;79.08;97197.13;4386207;32;20252;-58
2021/12/16 11:48:04;;;;;;;4.07;3.77;;;;;;;7.12;78.46;97193.75;4393080;32;20339;-58
2021/12/16 11:50:44;;;;;;;3.50;3.30;;;;;;;7.27;78.09;97196.81;4398796;32;20292;-58
2021/12/16 11:53:10;;;;;;;3.60;3.40;;;;;;;7.42;77.57;97196.37;4385099;32;20292;-59
2021/12/16 11:55:38;;;;;;;3.77;3.53;;;;;;;7.40;77.63;97191.31;4388468;32;20310;-58
2021/12/16 11:58:06;;;;;;;3.60;3.40;;;;;;;7.45;77.93;97198.56;4390785;32;20345;-58
2021/12/16 12:00:39;;;;;;;3.10;2.80;;;;;;;7.42;77.71;97197.19;4402800;32;20291;-58
2021/12/16 12:03:08;;;;;;;3.93;3.63;;;;;;;7.53;76.74;97198.22;4391049;32;20284;-58
2021/12/16 12:05:44;;;;;;;4.03;3.60;;;;;;;7.61;77.37;97197.91;4390202;32;20311;-58
2021/12/16 12:08:16;;;;;;;3.10;2.80;;;;;;;7.59;77.17;97197.31;4402591;32;20283;-58
2021/12/16 12:10:51;;;;;;;3.80;3.50;;;;;;;7.88;76.02;97203.56;4390235;32;20291;-58
2021/12/16 12:13:38;;;;;;;3.30;3.10;;;;;;;8.04;74.68;97202.06;4377758;32;20325;-58
2021/12/16 12:16:20;;;;;;;5.13;3.60;;;;;;;8.00;74.80;97201.72;4390038;32;20283;-58
2021/12/16 12:18:52;;;;;;;3.87;3.57;;;;;;;7.79;75.65;97205.72;4404306;32;20295;-58
2021/12/16 12:21:25;;;;;;;4.20;3.90;;;;;;;7.53;76.80;97204.31;4405773;32;20302;-58
2021/12/16 12:23:59;;;;;;;3.30;3.10;;;;;;;7.91;76.39;97208.34;4379582;32;20283;-58
2021/12/16 12:26:26;;;;;;;3.17;2.93;;;;;;;7.93;77.12;97207.09;4408139;32;20325;-58
2021/12/16 12:28:56;;;;;;;3.30;3.00;;;;;;;7.73;76.11;97205.81;4405736;32;20315;-57
2021/12/16 12:31:26;;;;;;;3.10;2.90;;;;;;;7.80;75.71;97202.06;4385802;32;20276;-56
2021/12/16 12:33:51;;;;;;;3.37;3.03;;;;;;;7.93;75.67;97206.28;4389107;32;20304;-57
2021/12/16 12:36:20;;;;;;;3.63;3.33;;;;;;;8.26;75.38;97203.09;4392277;32;20353;-58
2021/12/16 12:38:46;;;;;;;3.43;3.20;;;;;;;8.23;73.63;97196.41;4392059;32;20188;-59
2021/12/16 12:41:12;;;;;;;3.03;2.80;;;;;;;8.26;73.74;97200.44;4399129;32;20323;-59
2021/12/16 12:43:38;;;;;;;3.47;3.27;;;;;;;8.41;73.30;97200.78;4392770;32;20180;-58
2021/12/16 12:46:12;;;;;;;3.47;3.17;;;;;;;8.37;74.05;97197.00;4399058;32;20359;-58
2021/12/16 12:48:40;;;;;;;3.33;2.97;;;;;;;8.37;74.34;97193.53;4404290;32;20181;-59
2021/12/16 12:51:09;;;;;;;3.77;3.47;;;;;;;8.60;73.45;97202.25;4398546;32;20276;-59
2021/12/16 12:53:46;;;;;;;4.37;4.07;;;;;;;8.40;73.77;97195.72;4391478;32;20342;-57
2021/12/16 12:56:13;;;;;;;3.20;3.00;;;;;;;8.79;72.42;97194.94;4406636;32;20325;-58
2021/12/16 12:59:06;;;;;;;3.07;2.87;;;;;;;8.49;72.70;97191.69;4408267;32;20184;-58
2021/12/16 13:01:35;;;;;;;2.73;2.53;;;;;;;8.81;71.26;97184.94;4388922;32;20285;-58
2021/12/16 13:04:06;;;;;;;2.87;2.67;;;;;;;8.75;71.37;97191.16;4392023;32;20272;-57
2021/12/16 13:06:47;;;;;;;4.07;3.23;;;;;;;8.70;72.11;97191.06;4397229;32;20369;-58
2021/12/16 13:09:28;;;;;;;2.60;2.43;;;;;;;8.56;72.83;97185.22;4388274;32;20297;-57
2021/12/16 13:11:54;;;;;;;2.70;2.40;;;;;;;8.67;71.96;97183.59;4405765;32;20291;-58
2021/12/16 13:14:28;;;;;;;2.20;2.10;;;;;;;8.36;72.72;97194.56;4405372;32;20275;-58
2021/12/16 13:28:14;;;;;;;1.93;1.83;;;;;;;8.28;72.73;97178.03;4405339;32;20366;-57
2021/12/16 13:30:51;;;;;;;2.53;1.77;;;;;;;8.43;72.06;97180.19;4402284;32;20287;-58
2021/12/16 13:33:24;;;;;;;3.40;1.80;;;;;;;8.75;70.05;97166.53;4404543;32;20342;-58
2021/12/16 13:36:02;;;;;;;2.30;2.10;;;;;;;8.88;69.66;97172.38;4391156;32;20306;-58
2021/12/16 13:38:38;;;;;;;2.00;1.80;;;;;;;8.59;70.75;97173.37;4406764;32;20347;-56
2021/12/16 13:41:14;;;;;;;2.20;2.10;;;;;;;8.25;72.08;97178.47;4392058;32;20291;-57
2021/12/16 13:43:57;;;;;;;2.03;1.93;;;;;;;8.52;70.91;97176.16;4404258;32;20285;-58
2021/12/16 13:46:34;;;;;;;2.40;2.20;;;;;;;8.46;71.08;97178.94;4387925;32;20276;-57
2021/12/16 13:58:32;;;;;;;2.37;2.17;;;;;;;8.53;70.77;97195.47;4405492;32;20290;-57
2021/12/16 14:01:38;;;;;;;2.43;2.23;;;;;;;8.71;69.90;97203.25;4408714;32;20279;-55
2021/12/16 14:04:41;;;;;;;3.10;2.20;;;;;;;8.33;71.86;97195.03;4392106;32;20299;-58
2021/12/16 14:10:09;;;;;;;2.23;2.13;;;;;;;8.26;72.28;97200.44;4407713;32;20359;-57
2021/12/16 14:15:57;;;;;;;4.40;2.40;;;;;;;8.04;73.10;97202.88;4411231;32;20285;-58
2021/12/16 14:24:19;;;;;;;2.17;2.07;;;;;;;8.54;71.69;97171.44;4405509;32;20323;-57
2021/12/16 14:26:54;;;;;;;4.80;2.27;;;;;;;8.56;70.89;97171.19;4405823;32;20318;-58
2021/12/16 14:43:15;;;;;;;2.63;2.43;;;;;;;8.47;73.28;97185.84;4405748;32;20290;-58
2021/12/16 14:45:46;;;;;;;2.40;2.20;;;;;;;8.44;72.26;97202.97;4380199;32;20284;-58
2021/12/16 14:51:00;;;;;;;3.70;3.40;;;;;;;8.05;73.00;97211.59;4406951;32;20350;-58
2021/12/16 14:53:28;;;;;;;4.27;3.70;;;;;;;7.78;75.83;97225.25;4408350;32;20275;-53
2021/12/16 14:56:24;;;;;;;3.37;1.80;;;;;;;7.97;79.69;97228.59;4406736;32;20284;-52
2021/12/16 14:58:54;;;;;;;3.97;2.37;;;;;;;14.54;72.41;97222.81;4392282;32;20347;-53
2021/12/16 15:01:23;;;;;;;3.83;3.53;;;;;;;15.73;61.76;97231.63;4401234;32;20256;-58
2021/12/16 15:03:51;;;;;;;4.30;3.87;;;;;;;13.19;56.03;97241.94;4393606;32;20305;-58
2021/12/16 15:06:23;;;;;;;6.07;5.43;;;;;;;11.50;62.01;97244.53;4408068;32;20253;-58
2021/12/16 15:09:07;;;;;;;4.43;4.00;;;;;;;10.06;66.87;97250.13;4393477;32;20215;-58